sensor_id;sensor_type;location;lat;lon;timestamp;pressure;altitude;pressure_sealevel;temperature;humidity
41800;BME280;27468;47.460;19.034;2023-05-29T00:02:07;100331.22;;;15.32;56.90
41800;BME280;27468;47.460;19.034;2023-05-29T00:04:32;100371.31;;;15.48;57.91
41800;BME280;27468;47.460;19.034;2023-05-29T00:06:57;100324.53;;;15.22;57.71
41800;BME280;27468;47.460;19.034;2023-05-29T00:09:23;100310.69;;;15.14;57.65
41800;BME280;27468;47.460;19.034;2023-05-29T00:11:49;100360.25;;;15.37;57.64
41800;BME280;27468;47.460;19.034;2023-05-29T00:14:18;100369.78;;;15.42;57.74
41800;BME280;27468;47.460;19.034;2023-05-29T00:16:47;100386.94;;;15.34;58.03
41800;BME280;27468;47.460;19.034;2023-05-29T00:19:14;100384.16;;;15.37;58.02
41800;BME280;27468;47.460;19.034;2023-05-29T00:21:42;100389.59;;;15.34;58.09
41800;BME280;27468;47.460;19.034;2023-05-29T00:24:07;100395.72;;;15.36;57.90
41800;BME280;27468;47.460;19.034;2023-05-29T00:26:33;100342.84;;;15.06;57.72
41800;BME280;27468;47.460;19.034;2023-05-29T00:28:58;100402.00;;;15.33;58.30
41800;BME280;27468;47.460;19.034;2023-05-29T00:31:24;100333.72;;;14.92;58.38
41800;BME280;27468;47.460;19.034;2023-05-29T00:33:49;100350.69;;;15.09;58.11
41800;BME280;27468;47.460;19.034;2023-05-29T00:36:15;100344.56;;;15.07;58.13
41800;BME280;27468;47.460;19.034;2023-05-29T00:38:41;100378.41;;;15.26;58.13
41800;BME280;27468;47.460;19.034;2023-05-29T00:41:06;100362.81;;;15.16;58.17
41800;BME280;27468;47.460;19.034;2023-05-29T00:43:32;100377.66;;;15.22;58.80
41800;BME280;27468;47.460;19.034;2023-05-29T00:45:58;100376.09;;;15.16;59.10
41800;BME280;27468;47.460;19.034;2023-05-29T00:48:24;100375.84;;;15.23;58.79
41800;BME280;27468;47.460;19.034;2023-05-29T00:50:50;100354.09;;;15.13;57.90
41800;BME280;27468;47.460;19.034;2023-05-29T00:53:16;100364.53;;;15.17;57.53
41800;BME280;27468;47.460;19.034;2023-05-29T00:55:42;100360.09;;;15.18;57.83
41800;BME280;27468;47.460;19.034;2023-05-29T00:58:08;100374.31;;;15.17;57.27
41800;BME280;27468;47.460;19.034;2023-05-29T01:00:34;100361.25;;;15.11;57.21
41800;BME280;27468;47.460;19.034;2023-05-29T01:03:03;100363.78;;;15.14;57.75
41800;BME280;27468;47.460;19.034;2023-05-29T01:05:33;100304.97;;;14.79;57.43
41800;BME280;27468;47.460;19.034;2023-05-29T01:07:59;100351.56;;;15.10;57.20
41800;BME280;27468;47.460;19.034;2023-05-29T01:10:24;100373.31;;;15.19;57.77
41800;BME280;27468;47.460;19.034;2023-05-29T01:12:57;100320.44;;;14.92;58.17
41800;BME280;27468;47.460;19.034;2023-05-29T01:21:11;100367.50;;;15.10;58.75
41800;BME280;27468;47.460;19.034;2023-05-29T01:29:10;100343.06;;;15.02;57.08
41800;BME280;27468;47.460;19.034;2023-05-29T01:31:39;100339.66;;;14.98;56.96
41800;BME280;27468;47.460;19.034;2023-05-29T01:34:04;100350.06;;;15.03;56.73
41800;BME280;27468;47.460;19.034;2023-05-29T01:36:30;100352.47;;;15.09;56.81
41800;BME280;27468;47.460;19.034;2023-05-29T01:38:58;100351.69;;;15.07;58.19
41800;BME280;27468;47.460;19.034;2023-05-29T01:41:25;100344.69;;;15.04;58.49
41800;BME280;27468;47.460;19.034;2023-05-29T01:43:51;100352.66;;;15.04;59.15
41800;BME280;27468;47.460;19.034;2023-05-29T01:46:18;100342.19;;;15.01;59.59
41800;BME280;27468;47.460;19.034;2023-05-29T01:48:44;100342.38;;;14.97;59.36
41800;BME280;27468;47.460;19.034;2023-05-29T01:51:11;100352.06;;;14.98;59.26
41800;BME280;27468;47.460;19.034;2023-05-29T01:53:38;100330.47;;;14.83;59.38
41800;BME280;27468;47.460;19.034;2023-05-29T01:56:05;100304.53;;;14.68;59.17
41800;BME280;27468;47.460;19.034;2023-05-29T01:58:32;100344.50;;;14.87;59.09
41800;BME280;27468;47.460;19.034;2023-05-29T02:00:58;100304.56;;;14.67;59.76
41800;BME280;27468;47.460;19.034;2023-05-29T02:03:23;100348.94;;;14.86;59.72
41800;BME280;27468;47.460;19.034;2023-05-29T02:05:49;100294.47;;;14.53;59.54
41800;BME280;27468;47.460;19.034;2023-05-29T02:08:15;100342.19;;;14.78;60.05
41800;BME280;27468;47.460;19.034;2023-05-29T02:10:41;100322.56;;;14.59;60.47
41800;BME280;27468;47.460;19.034;2023-05-29T02:13:06;100310.81;;;14.42;60.72
41800;BME280;27468;47.460;19.034;2023-05-29T02:15:31;100339.19;;;14.64;60.69
41800;BME280;27468;47.460;19.034;2023-05-29T02:17:57;100320.03;;;14.56;60.76
41800;BME280;27468;47.460;19.034;2023-05-29T02:20:24;100338.31;;;14.63;60.81
41800;BME280;27468;47.460;19.034;2023-05-29T02:22:49;100308.84;;;14.47;60.89
41800;BME280;27468;47.460;19.034;2023-05-29T02:25:15;100329.66;;;14.58;60.77
41800;BME280;27468;47.460;19.034;2023-05-29T02:27:40;100319.44;;;14.47;61.37
41800;BME280;27468;47.460;19.034;2023-05-29T02:30:06;100339.47;;;14.56;61.24
41800;BME280;27468;47.460;19.034;2023-05-29T02:32:33;100283.38;;;14.18;61.39
41800;BME280;27468;47.460;19.034;2023-05-29T02:34:58;100344.94;;;14.51;61.73
41800;BME280;27468;47.460;19.034;2023-05-29T02:37:24;100272.13;;;14.12;62.70
41800;BME280;27468;47.460;19.034;2023-05-29T02:39:51;100312.84;;;14.34;62.53
41800;BME280;27468;47.460;19.034;2023-05-29T02:42:17;100305.88;;;14.32;62.07
41800;BME280;27468;47.460;19.034;2023-05-29T02:44:42;100289.63;;;14.16;62.82
41800;BME280;27468;47.460;19.034;2023-05-29T02:47:08;100288.66;;;14.18;62.73
41800;BME280;27468;47.460;19.034;2023-05-29T02:49:33;100319.78;;;14.38;62.88
41800;BME280;27468;47.460;19.034;2023-05-29T02:51:58;100317.94;;;14.40;62.45
41800;BME280;27468;47.460;19.034;2023-05-29T02:54:24;100315.63;;;14.31;62.75
41800;BME280;27468;47.460;19.034;2023-05-29T02:56:51;100319.03;;;14.35;63.22
41800;BME280;27468;47.460;19.034;2023-05-29T02:59:16;100321.63;;;14.36;63.41
41800;BME280;27468;47.460;19.034;2023-05-29T03:01:41;100300.69;;;14.29;63.50
41800;BME280;27468;47.460;19.034;2023-05-29T03:04:09;100306.63;;;14.35;63.41
41800;BME280;27468;47.460;19.034;2023-05-29T03:06:35;100257.34;;;14.05;63.87
41800;BME280;27468;47.460;19.034;2023-05-29T03:09:02;100308.31;;;14.38;63.53
41800;BME280;27468;47.460;19.034;2023-05-29T03:11:28;100266.88;;;14.10;64.08
41800;BME280;27468;47.460;19.034;2023-05-29T03:13:54;100317.22;;;14.35;63.94
41800;BME280;27468;47.460;19.034;2023-05-29T03:16:20;100325.72;;;14.45;63.46
41800;BME280;27468;47.460;19.034;2023-05-29T03:18:46;100272.81;;;14.17;63.94
41800;BME280;27468;47.460;19.034;2023-05-29T03:21:11;100331.84;;;14.47;64.02
41800;BME280;27468;47.460;19.034;2023-05-29T03:23:37;100284.94;;;14.24;63.75
41800;BME280;27468;47.460;19.034;2023-05-29T03:26:02;100275.34;;;14.20;63.73
41800;BME280;27468;47.460;19.034;2023-05-29T03:28:29;100333.41;;;14.52;63.48
41800;BME280;27468;47.460;19.034;2023-05-29T03:30:54;100333.56;;;14.48;63.55
41800;BME280;27468;47.460;19.034;2023-05-29T03:33:20;100280.53;;;14.23;63.56
41800;BME280;27468;47.460;19.034;2023-05-29T03:35:45;100334.22;;;14.54;63.57
41800;BME280;27468;47.460;19.034;2023-05-29T03:38:11;100327.28;;;14.50;63.56
41800;BME280;27468;47.460;19.034;2023-05-29T03:40:36;100347.25;;;14.61;63.51
41800;BME280;27468;47.460;19.034;2023-05-29T03:43:02;100346.22;;;14.65;63.42
41800;BME280;27468;47.460;19.034;2023-05-29T03:45:27;100328.00;;;14.56;63.75
41800;BME280;27468;47.460;19.034;2023-05-29T03:47:52;100346.53;;;14.80;63.61
41800;BME280;27468;47.460;19.034;2023-05-29T03:50:18;100349.88;;;15.07;63.57
41800;BME280;27468;47.460;19.034;2023-05-29T03:52:43;100349.00;;;15.30;62.12
41800;BME280;27468;47.460;19.034;2023-05-29T03:55:10;100347.88;;;15.59;61.51
41800;BME280;27468;47.460;19.034;2023-05-29T03:57:40;100295.22;;;15.67;60.50
41800;BME280;27468;47.460;19.034;2023-05-29T04:00:09;100359.59;;;16.36;59.81
41800;BME280;27468;47.460;19.034;2023-05-29T04:02:39;100357.09;;;16.74;58.89
41800;BME280;27468;47.460;19.034;2023-05-29T04:05:06;100336.34;;;16.99;57.33
41800;BME280;27468;47.460;19.034;2023-05-29T04:07:32;100348.75;;;17.36;56.39
41800;BME280;27468;47.460;19.034;2023-05-29T04:09:58;100301.22;;;17.46;55.88
41800;BME280;27468;47.460;19.034;2023-05-29T04:12:23;100288.50;;;17.70;55.08
41800;BME280;27468;47.460;19.034;2023-05-29T04:14:49;100326.94;;;18.18;53.25
41800;BME280;27468;47.460;19.034;2023-05-29T04:17:14;100306.09;;;18.41;54.00
41800;BME280;27468;47.460;19.034;2023-05-29T04:19:39;100360.88;;;18.99;52.87
41800;BME280;27468;47.460;19.034;2023-05-29T04:22:05;100350.84;;;19.18;51.77
41800;BME280;27468;47.460;19.034;2023-05-29T04:24:30;100350.94;;;19.48;51.01
41800;BME280;27468;47.460;19.034;2023-05-29T04:26:57;100350.16;;;19.77;50.16
41800;BME280;27468;47.460;19.034;2023-05-29T04:29:26;100345.22;;;20.16;50.73
41800;BME280;27468;47.460;19.034;2023-05-29T04:31:51;100347.88;;;20.46;50.46
41800;BME280;27468;47.460;19.034;2023-05-29T04:34:17;100297.81;;;20.32;49.70
41800;BME280;27468;47.460;19.034;2023-05-29T04:36:42;100310.00;;;20.52;48.40
41800;BME280;27468;47.460;19.034;2023-05-29T04:39:09;100348.25;;;21.10;48.11
41800;BME280;27468;47.460;19.034;2023-05-29T04:41:35;100351.31;;;21.33;46.03
41800;BME280;27468;47.460;19.034;2023-05-29T04:44:01;100353.69;;;21.64;46.22
41800;BME280;27468;47.460;19.034;2023-05-29T04:46:27;100336.06;;;21.87;45.60
41800;BME280;27468;47.460;19.034;2023-05-29T04:48:52;100337.19;;;22.10;44.56
41800;BME280;27468;47.460;19.034;2023-05-29T04:51:22;100259.28;;;21.97;43.51
41800;BME280;27468;47.460;19.034;2023-05-29T04:53:48;100347.97;;;22.73;42.96
41800;BME280;27468;47.460;19.034;2023-05-29T04:56:14;100350.00;;;23.08;43.41
41800;BME280;27468;47.460;19.034;2023-05-29T04:58:40;100343.50;;;23.23;42.07
41800;BME280;27468;47.460;19.034;2023-05-29T05:01:06;100342.97;;;23.18;41.20
41800;BME280;27468;47.460;19.034;2023-05-29T05:03:33;100352.13;;;23.52;40.82
41800;BME280;27468;47.460;19.034;2023-05-29T05:06:02;100348.75;;;23.25;40.48
41800;BME280;27468;47.460;19.034;2023-05-29T05:08:29;100357.03;;;22.98;40.85
41800;BME280;27468;47.460;19.034;2023-05-29T05:10:55;100356.69;;;22.64;41.21
41800;BME280;27468;47.460;19.034;2023-05-29T05:13:20;100348.09;;;22.34;41.38
41800;BME280;27468;47.460;19.034;2023-05-29T05:15:46;100366.44;;;22.27;42.41
41800;BME280;27468;47.460;19.034;2023-05-29T05:18:11;100312.72;;;21.75;42.34
41800;BME280;27468;47.460;19.034;2023-05-29T05:20:37;100296.44;;;21.51;42.69
41800;BME280;27468;47.460;19.034;2023-05-29T05:23:02;100353.06;;;21.73;42.59
41800;BME280;27468;47.460;19.034;2023-05-29T05:25:27;100351.97;;;21.63;43.06
41800;BME280;27468;47.460;19.034;2023-05-29T05:27:53;100362.59;;;21.65;43.06
41800;BME280;27468;47.460;19.034;2023-05-29T05:30:18;100362.47;;;21.39;43.62
41800;BME280;27468;47.460;19.034;2023-05-29T05:32:43;100363.69;;;21.21;43.99
41800;BME280;27468;47.460;19.034;2023-05-29T05:35:09;100305.81;;;20.76;44.79
41800;BME280;27468;47.460;19.034;2023-05-29T05:37:36;100357.72;;;21.16;44.95
41800;BME280;27468;47.460;19.034;2023-05-29T05:40:02;100324.63;;;20.89;44.92
41800;BME280;27468;47.460;19.034;2023-05-29T05:42:29;100352.56;;;21.13;44.39
41800;BME280;27468;47.460;19.034;2023-05-29T05:44:54;100344.44;;;20.86;44.84
41800;BME280;27468;47.460;19.034;2023-05-29T05:47:19;100367.69;;;21.00;45.18
41800;BME280;27468;47.460;19.034;2023-05-29T05:49:45;100334.19;;;20.93;44.75
41800;BME280;27468;47.460;19.034;2023-05-29T05:52:10;100377.72;;;21.10;44.44
41800;BME280;27468;47.460;19.034;2023-05-29T05:54:36;100360.88;;;21.08;45.04
41800;BME280;27468;47.460;19.034;2023-05-29T05:57:01;100336.56;;;20.97;44.98
41800;BME280;27468;47.460;19.034;2023-05-29T05:59:28;100374.31;;;21.23;45.03
41800;BME280;27468;47.460;19.034;2023-05-29T06:01:53;100357.94;;;21.27;44.70
41800;BME280;27468;47.460;19.034;2023-05-29T06:04:19;100365.31;;;21.24;44.30
41800;BME280;27468;47.460;19.034;2023-05-29T06:06:44;100332.75;;;21.01;44.24
41800;BME280;27468;47.460;19.034;2023-05-29T06:09:10;100360.31;;;21.18;44.49
41800;BME280;27468;47.460;19.034;2023-05-29T06:11:36;100373.03;;;21.14;43.72
41800;BME280;27468;47.460;19.034;2023-05-29T06:14:03;100373.22;;;21.11;43.59
41800;BME280;27468;47.460;19.034;2023-05-29T06:16:28;100361.38;;;21.01;43.98
41800;BME280;27468;47.460;19.034;2023-05-29T06:18:55;100383.38;;;21.20;44.18
41800;BME280;27468;47.460;19.034;2023-05-29T06:21:20;100382.16;;;21.26;44.09
41800;BME280;27468;47.460;19.034;2023-05-29T06:23:46;100358.56;;;21.17;43.54
41800;BME280;27468;47.460;19.034;2023-05-29T06:26:11;100382.81;;;21.29;44.28
41800;BME280;27468;47.460;19.034;2023-05-29T06:28:37;100345.84;;;21.20;43.96
41800;BME280;27468;47.460;19.034;2023-05-29T06:31:03;100366.56;;;21.45;43.84
41800;BME280;27468;47.460;19.034;2023-05-29T06:33:28;100376.97;;;21.64;43.38
41800;BME280;27468;47.460;19.034;2023-05-29T06:35:55;100380.97;;;21.71;43.25
41800;BME280;27468;47.460;19.034;2023-05-29T06:38:20;100391.59;;;21.72;42.94
41800;BME280;27468;47.460;19.034;2023-05-29T06:40:46;100345.13;;;21.72;42.75
41800;BME280;27468;47.460;19.034;2023-05-29T06:43:11;100370.84;;;21.89;42.13
41800;BME280;27468;47.460;19.034;2023-05-29T06:45:37;100394.88;;;22.17;42.13
41800;BME280;27468;47.460;19.034;2023-05-29T06:48:03;100383.38;;;22.15;42.73
41800;BME280;27468;47.460;19.034;2023-05-29T06:50:28;100392.97;;;22.19;42.77
41800;BME280;27468;47.460;19.034;2023-05-29T06:52:54;100377.06;;;22.16;42.15
41800;BME280;27468;47.460;19.034;2023-05-29T06:55:19;100371.34;;;22.08;41.96
41800;BME280;27468;47.460;19.034;2023-05-29T06:57:45;100383.25;;;22.04;42.52
41800;BME280;27468;47.460;19.034;2023-05-29T07:00:11;100400.72;;;22.24;43.09
41800;BME280;27468;47.460;19.034;2023-05-29T07:02:37;100398.72;;;22.40;43.19
41800;BME280;27468;47.460;19.034;2023-05-29T07:05:03;100344.38;;;22.10;43.35
41800;BME280;27468;47.460;19.034;2023-05-29T07:07:28;100356.00;;;22.10;44.09
41800;BME280;27468;47.460;19.034;2023-05-29T07:09:54;100394.84;;;22.44;43.56
41800;BME280;27468;47.460;19.034;2023-05-29T07:12:22;100400.22;;;22.57;43.41
41800;BME280;27468;47.460;19.034;2023-05-29T07:14:48;100392.78;;;22.60;43.13
41800;BME280;27468;47.460;19.034;2023-05-29T07:17:14;100398.28;;;22.71;42.84
41800;BME280;27468;47.460;19.034;2023-05-29T07:19:40;100380.31;;;22.59;42.84
41800;BME280;27468;47.460;19.034;2023-05-29T07:22:05;100398.81;;;22.77;42.86
41800;BME280;27468;47.460;19.034;2023-05-29T07:24:31;100408.44;;;22.81;42.81
41800;BME280;27468;47.460;19.034;2023-05-29T07:26:56;100405.38;;;22.72;42.73
41800;BME280;27468;47.460;19.034;2023-05-29T07:29:22;100420.69;;;22.97;42.50
41800;BME280;27468;47.460;19.034;2023-05-29T07:31:49;100396.16;;;23.02;42.79
41800;BME280;27468;47.460;19.034;2023-05-29T07:34:15;100428.38;;;23.27;43.09
41800;BME280;27468;47.460;19.034;2023-05-29T07:37:15;100430.84;;;23.56;42.59
41800;BME280;27468;47.460;19.034;2023-05-29T07:39:41;100436.75;;;23.61;42.36
41800;BME280;27468;47.460;19.034;2023-05-29T07:42:07;100400.28;;;23.44;42.49
41800;BME280;27468;47.460;19.034;2023-05-29T07:44:33;100376.16;;;23.43;41.92
41800;BME280;27468;47.460;19.034;2023-05-29T07:46:58;100433.50;;;23.92;41.83
41800;BME280;27468;47.460;19.034;2023-05-29T07:49:24;100427.25;;;23.92;42.43
41800;BME280;27468;47.460;19.034;2023-05-29T07:51:50;100392.06;;;23.82;41.64
41800;BME280;27468;47.460;19.034;2023-05-29T07:54:15;100394.41;;;23.87;41.82
41800;BME280;27468;47.460;19.034;2023-05-29T07:56:43;100424.44;;;24.17;41.91
41800;BME280;27468;47.460;19.034;2023-05-29T07:59:09;100388.97;;;23.99;41.83
41800;BME280;27468;47.460;19.034;2023-05-29T08:01:35;100398.19;;;24.08;41.70
41800;BME280;27468;47.460;19.034;2023-05-29T08:04:00;100409.25;;;24.16;41.61
41800;BME280;27468;47.460;19.034;2023-05-29T08:06:26;100440.59;;;24.41;41.49
41800;BME280;27468;47.460;19.034;2023-05-29T08:08:51;100400.38;;;24.27;41.47
41800;BME280;27468;47.460;19.034;2023-05-29T08:11:18;100390.41;;;24.16;41.21
41800;BME280;27468;47.460;19.034;2023-05-29T08:13:43;100438.91;;;24.51;41.47
41800;BME280;27468;47.460;19.034;2023-05-29T08:16:08;100374.00;;;24.19;41.19
41800;BME280;27468;47.460;19.034;2023-05-29T08:18:34;100425.91;;;24.45;41.17
41800;BME280;27468;47.460;19.034;2023-05-29T08:20:59;100343.16;;;23.88;41.29
41800;BME280;27468;47.460;19.034;2023-05-29T08:23:25;100406.50;;;24.29;41.04
41800;BME280;27468;47.460;19.034;2023-05-29T08:25:50;100408.59;;;24.25;41.31
41800;BME280;27468;47.460;19.034;2023-05-29T08:28:16;100413.66;;;24.17;41.35
41800;BME280;27468;47.460;19.034;2023-05-29T08:30:41;100429.41;;;24.34;41.94
41800;BME280;27468;47.460;19.034;2023-05-29T08:33:07;100409.31;;;24.27;41.56
41800;BME280;27468;47.460;19.034;2023-05-29T08:35:33;100386.38;;;24.22;40.79
41800;BME280;27468;47.460;19.034;2023-05-29T08:37:59;100364.22;;;23.94;40.68
41800;BME280;27468;47.460;19.034;2023-05-29T08:40:24;100392.75;;;23.97;40.74
41800;BME280;27468;47.460;19.034;2023-05-29T08:45:18;100372.06;;;23.97;40.35
41800;BME280;27468;47.460;19.034;2023-05-29T08:47:52;100387.94;;;24.13;40.98
41800;BME280;27468;47.460;19.034;2023-05-29T08:50:19;100396.81;;;24.26;40.94
41800;BME280;27468;47.460;19.034;2023-05-29T08:52:44;100369.25;;;24.23;40.72
41800;BME280;27468;47.460;19.034;2023-05-29T08:55:10;100365.34;;;24.27;40.38
41800;BME280;27468;47.460;19.034;2023-05-29T08:57:36;100397.63;;;24.51;40.32
41800;BME280;27468;47.460;19.034;2023-05-29T09:00:04;100411.28;;;24.72;40.02
41800;BME280;27468;47.460;19.034;2023-05-29T09:02:43;100353.22;;;24.32;39.85
41800;BME280;27468;47.460;19.034;2023-05-29T09:05:09;100360.22;;;24.35;39.61
41800;BME280;27468;47.460;19.034;2023-05-29T09:07:39;100391.53;;;24.60;40.16
41800;BME280;27468;47.460;19.034;2023-05-29T09:10:13;100414.13;;;24.81;39.33
41800;BME280;27468;47.460;19.034;2023-05-29T09:12:40;100388.34;;;24.66;39.50
41800;BME280;27468;47.460;19.034;2023-05-29T09:15:24;100427.72;;;24.80;39.88
41800;BME280;27468;47.460;19.034;2023-05-29T09:17:54;100416.06;;;24.90;39.70
41800;BME280;27468;47.460;19.034;2023-05-29T09:20:21;100422.00;;;25.07;39.72
41800;BME280;27468;47.460;19.034;2023-05-29T09:25:19;100402.50;;;25.14;39.37
41800;BME280;27468;47.460;19.034;2023-05-29T09:27:50;100403.38;;;25.26;39.62
41800;BME280;27468;47.460;19.034;2023-05-29T09:30:39;100420.78;;;25.33;38.85
41800;BME280;27468;47.460;19.034;2023-05-29T09:33:07;100414.53;;;25.32;39.28
41800;BME280;27468;47.460;19.034;2023-05-29T09:38:06;100379.69;;;25.29;39.17
41800;BME280;27468;47.460;19.034;2023-05-29T09:40:33;100415.34;;;25.55;38.80
41800;BME280;27468;47.460;19.034;2023-05-29T09:43:18;100416.81;;;25.59;38.32
41800;BME280;27468;47.460;19.034;2023-05-29T09:45:46;100427.38;;;25.74;37.82
41800;BME280;27468;47.460;19.034;2023-05-29T09:48:24;100424.91;;;25.82;37.44
41800;BME280;27468;47.460;19.034;2023-05-29T09:50:51;100394.59;;;25.45;37.60
41800;BME280;27468;47.460;19.034;2023-05-29T09:53:21;100424.06;;;25.70;37.97
41800;BME280;27468;47.460;19.034;2023-05-29T09:55:49;100390.06;;;25.45;37.92
41800;BME280;27468;47.460;19.034;2023-05-29T09:58:17;100430.06;;;25.74;37.71
41800;BME280;27468;47.460;19.034;2023-05-29T10:00:43;100438.03;;;25.75;37.52
41800;BME280;27468;47.460;19.034;2023-05-29T10:03:10;100378.53;;;25.43;37.91
41800;BME280;27468;47.460;19.034;2023-05-29T10:05:37;100394.16;;;25.40;38.44
41800;BME280;27468;47.460;19.034;2023-05-29T10:08:03;100445.41;;;25.62;38.75
41800;BME280;27468;47.460;19.034;2023-05-29T10:10:30;100404.34;;;25.36;39.06
41800;BME280;27468;47.460;19.034;2023-05-29T10:12:57;100439.03;;;25.52;38.84
41800;BME280;27468;47.460;19.034;2023-05-29T10:15:23;100447.47;;;25.58;39.38
41800;BME280;27468;47.460;19.034;2023-05-29T10:18:05;100440.75;;;25.53;39.40
41800;BME280;27468;47.460;19.034;2023-05-29T10:20:35;100438.41;;;25.59;39.66
41800;BME280;27468;47.460;19.034;2023-05-29T10:23:02;100417.56;;;25.50;39.61
41800;BME280;27468;47.460;19.034;2023-05-29T10:25:33;100444.31;;;25.64;39.93
41800;BME280;27468;47.460;19.034;2023-05-29T10:28:01;100427.34;;;25.62;39.38
41800;BME280;27468;47.460;19.034;2023-05-29T10:30:29;100440.97;;;25.83;38.97
41800;BME280;27468;47.460;19.034;2023-05-29T10:36:14;100432.06;;;26.04;39.29
41800;BME280;27468;47.460;19.034;2023-05-29T10:38:44;100432.88;;;26.15;39.50
41800;BME280;27468;47.460;19.034;2023-05-29T10:43:54;100393.19;;;26.16;38.70
41800;BME280;27468;47.460;19.034;2023-05-29T10:46:20;100367.22;;;26.04;38.77
41800;BME280;27468;47.460;19.034;2023-05-29T10:48:49;100417.84;;;26.34;38.88
41800;BME280;27468;47.460;19.034;2023-05-29T10:51:25;100417.78;;;26.45;38.66
41800;BME280;27468;47.460;19.034;2023-05-29T10:53:51;100426.63;;;26.47;38.44
41800;BME280;27468;47.460;19.034;2023-05-29T10:56:28;100422.94;;;26.48;39.07
41800;BME280;27468;47.460;19.034;2023-05-29T10:58:56;100382.47;;;26.25;39.17
41800;BME280;27468;47.460;19.034;2023-05-29T11:01:24;100383.06;;;26.29;38.86
41800;BME280;27468;47.460;19.034;2023-05-29T11:03:50;100381.19;;;26.41;39.33
41800;BME280;27468;47.460;19.034;2023-05-29T11:06:21;100423.44;;;26.62;41.48
41800;BME280;27468;47.460;19.034;2023-05-29T11:08:57;100368.56;;;26.30;42.81
41800;BME280;27468;47.460;19.034;2023-05-29T11:11:32;100390.84;;;26.22;41.72
41800;BME280;27468;47.460;19.034;2023-05-29T11:14:04;100390.16;;;26.09;41.46
41800;BME280;27468;47.460;19.034;2023-05-29T11:18:56;100372.22;;;25.87;40.28
41800;BME280;27468;47.460;19.034;2023-05-29T11:24:32;100416.19;;;26.10;40.39
41800;BME280;27468;47.460;19.034;2023-05-29T11:26:58;100399.44;;;25.95;40.19
41800;BME280;27468;47.460;19.034;2023-05-29T11:29:29;100381.69;;;25.82;40.10
41800;BME280;27468;47.460;19.034;2023-05-29T11:31:59;100414.16;;;26.23;40.44
41800;BME280;27468;47.460;19.034;2023-05-29T11:34:28;100374.59;;;26.02;41.31
41800;BME280;27468;47.460;19.034;2023-05-29T11:36:54;100400.28;;;26.28;41.39
41800;BME280;27468;47.460;19.034;2023-05-29T11:39:19;100377.06;;;26.25;41.26
41800;BME280;27468;47.460;19.034;2023-05-29T11:41:50;100363.69;;;26.24;40.42
41800;BME280;27468;47.460;19.034;2023-05-29T11:44:15;100405.19;;;26.34;40.64
41800;BME280;27468;47.460;19.034;2023-05-29T11:46:42;100361.84;;;26.24;39.77
41800;BME280;27468;47.460;19.034;2023-05-29T11:49:07;100389.53;;;26.58;38.95
41800;BME280;27468;47.460;19.034;2023-05-29T11:51:33;100333.31;;;26.31;38.76
41800;BME280;27468;47.460;19.034;2023-05-29T11:53:58;100386.84;;;26.79;38.73
41800;BME280;27468;47.460;19.034;2023-05-29T11:56:28;100366.78;;;26.82;38.66
41800;BME280;27468;47.460;19.034;2023-05-29T11:58:54;100375.06;;;26.90;39.31
41800;BME280;27468;47.460;19.034;2023-05-29T12:01:24;100362.25;;;26.92;40.58
41800;BME280;27468;47.460;19.034;2023-05-29T12:03:50;100358.72;;;26.91;39.95
41800;BME280;27468;47.460;19.034;2023-05-29T12:06:16;100356.72;;;26.93;37.91
41800;BME280;27468;47.460;19.034;2023-05-29T12:08:56;100319.13;;;26.90;37.21
41800;BME280;27468;47.460;19.034;2023-05-29T12:11:24;100322.75;;;27.01;36.65
41800;BME280;27468;47.460;19.034;2023-05-29T12:13:57;100327.22;;;26.90;35.77
41800;BME280;27468;47.460;19.034;2023-05-29T12:16:23;100339.13;;;26.99;37.95
41800;BME280;27468;47.460;19.034;2023-05-29T12:18:49;100344.53;;;26.99;36.38
41800;BME280;27468;47.460;19.034;2023-05-29T12:21:14;100340.34;;;26.95;36.18
41800;BME280;27468;47.460;19.034;2023-05-29T12:23:39;100353.56;;;27.19;36.38
41800;BME280;27468;47.460;19.034;2023-05-29T12:26:05;100301.63;;;26.94;37.61
41800;BME280;27468;47.460;19.034;2023-05-29T12:28:30;100337.84;;;27.03;35.98
41800;BME280;27468;47.460;19.034;2023-05-29T12:30:59;100276.44;;;26.63;36.10
41800;BME280;27468;47.460;19.034;2023-05-29T12:33:29;100315.56;;;26.90;35.68
41800;BME280;27468;47.460;19.034;2023-05-29T12:36:11;100330.38;;;26.95;36.19
41800;BME280;27468;47.460;19.034;2023-05-29T12:38:50;100336.91;;;27.14;37.71
41800;BME280;27468;47.460;19.034;2023-05-29T12:41:29;100322.94;;;27.09;36.22
41800;BME280;27468;47.460;19.034;2023-05-29T12:43:56;100298.19;;;26.92;36.11
41800;BME280;27468;47.460;19.034;2023-05-29T12:46:23;100285.28;;;26.96;37.48
41800;BME280;27468;47.460;19.034;2023-05-29T12:48:49;100315.94;;;27.06;36.95
41800;BME280;27468;47.460;19.034;2023-05-29T12:51:18;100328.78;;;27.23;36.16
41800;BME280;27468;47.460;19.034;2023-05-29T12:53:47;100315.53;;;27.11;37.79
41800;BME280;27468;47.460;19.034;2023-05-29T12:56:12;100276.97;;;26.88;36.59
41800;BME280;27468;47.460;19.034;2023-05-29T12:58:38;100326.09;;;27.33;37.52
41800;BME280;27468;47.460;19.034;2023-05-29T13:01:03;100318.59;;;27.46;36.29
41800;BME280;27468;47.460;19.034;2023-05-29T13:03:29;100330.72;;;27.52;36.93
41800;BME280;27468;47.460;19.034;2023-05-29T13:05:55;100324.72;;;27.48;37.73
41800;BME280;27468;47.460;19.034;2023-05-29T13:08:21;100273.31;;;26.99;35.54
41800;BME280;27468;47.460;19.034;2023-05-29T13:10:46;100312.41;;;27.25;36.25